Time;durP1;ratioP1;P1;durP2;ratioP2;P2;SDS_P1;SDS_P2;PMS_P1;PMS_P2;Temp;Humidity;BMP_temperature;BMP_pressure;BME280_temperature;BME280_humidity;BME280_pressure;Samples;Min_cycle;Max_cycle;Signal;HPM_P1;HPM_P2
2023/10/15 00:02:33;;;;;;;;;;;20.00;60.00;;;;;;10243402;28;93075;-53
2023/10/15 00:07:35;;;;;;;;;;;20.00;59.90;;;;;;10234434;28;93757;-50
2023/10/15 00:12:37;;;;;;;;;;;20.00;59.80;;;;;;10239902;28;92853;-53
2023/10/15 00:17:40;;;;;;;;;;;20.00;59.80;;;;;;10217955;28;94692;-51
2023/10/15 00:22:46;;;;;;;;;;;20.00;59.80;;;;;;10221731;28;94476;-50
2023/10/15 00:27:56;;;;;;;;;;;20.00;59.70;;;;;;10239053;28;97252;-50
2023/10/15 00:32:59;;;;;;;;;;;20.00;59.60;;;;;;10232873;28;95040;-52
2023/10/15 00:38:07;;;;;;;;;;;20.00;59.70;;;;;;10238832;28;94843;-52
2023/10/15 00:43:10;;;;;;;;;;;19.90;59.50;;;;;;10231146;28;93433;-52
2023/10/15 00:48:18;;;;;;;;;;;19.90;59.50;;;;;;10228082;28;94607;-48
2023/10/15 00:53:22;;;;;;;;;;;19.90;59.60;;;;;;10228082;28;94712;-51
2023/10/15 00:59:13;;;;;;;;;;;19.90;59.60;;;;;;10237374;28;93890;-52
2023/10/15 01:04:06;;;;;;;;;;;19.90;59.60;;;;;;10649386;23;96237;-64
2023/10/15 01:09:19;;;;;;;;;;;19.90;59.70;;;;;;10232164;28;93529;-64
2023/10/15 01:14:31;;;;;;;;;;;19.90;59.70;;;;;;10239267;28;93674;-64
2023/10/15 01:19:34;;;;;;;;;;;19.90;59.70;;;;;;10227149;28;96098;-64
2023/10/15 01:24:38;;;;;;;;;;;19.90;59.50;;;;;;10226832;28;93649;-64
2023/10/15 01:29:40;;;;;;;;;;;19.80;59.60;;;;;;10229609;28;94151;-65
2023/10/15 01:34:45;;;;;;;;;;;19.80;59.50;;;;;;10238085;28;93489;-65
2023/10/15 01:39:48;;;;;;;;;;;19.90;59.40;;;;;;10214439;28;93479;-63
2023/10/15 01:44:50;;;;;;;;;;;19.90;59.20;;;;;;10238116;28;94872;-64
2023/10/15 01:49:56;;;;;;;;;;;19.80;59.10;;;;;;10217438;28;94253;-64
2023/10/15 01:55:04;;;;;;;;;;;19.90;59.10;;;;;;10229130;28;93061;-64
2023/10/15 02:00:13;;;;;;;;;;;19.90;59.20;;;;;;10222952;28;94094;-64
2023/10/15 02:05:40;;;;;;;;;;;19.90;59.10;;;;;;10243633;28;94270;-64
2023/10/15 02:10:49;;;;;;;;;;;19.90;59.10;;;;;;10244386;28;95913;-64
2023/10/15 02:15:50;;;;;;;;;;;19.90;60.00;;;;;;10220011;28;93455;-64
2023/10/15 02:26:03;;;;;;;;;;;19.80;59.00;;;;;;10234164;28;94653;-64
2023/10/15 02:31:18;;;;;;;;;;;19.80;59.00;;;;;;10240398;28;94561;-64
2023/10/15 02:36:24;;;;;;;;;;;19.80;58.90;;;;;;10241423;28;92558;-64
2023/10/15 02:41:31;;;;;;;;;;;19.80;59.00;;;;;;10241461;28;93396;-64
2023/10/15 02:51:35;;;;;;;;;;;19.80;59.00;;;;;;10244220;28;94850;-65
2023/10/15 02:56:36;;;;;;;;;;;19.80;59.00;;;;;;10239589;28;94000;-64
2023/10/15 03:01:38;;;;;;;;;;;19.80;59.00;;;;;;10242558;28;97241;-70
2023/10/15 03:06:42;;;;;;;;;;;19.70;59.00;;;;;;10234894;28;94586;-64
2023/10/15 03:11:50;;;;;;;;;;;19.70;59.00;;;;;;10244979;28;93387;-64
2023/10/15 03:16:56;;;;;;;;;;;19.70;59.00;;;;;;10218892;28;94930;-64
2023/10/15 03:21:59;;;;;;;;;;;19.70;59.00;;;;;;10246118;28;93900;-64
2023/10/15 03:27:02;;;;;;;;;;;19.70;58.90;;;;;;10227442;28;93812;-63
2023/10/15 03:32:12;;;;;;;;;;;19.70;58.90;;;;;;10221961;28;94534;-64
2023/10/15 03:37:21;;;;;;;;;;;19.70;58.90;;;;;;10231703;28;92795;-64
2023/10/15 03:42:26;;;;;;;;;;;19.70;58.80;;;;;;10222097;28;92732;-64
2023/10/15 03:47:28;;;;;;;;;;;19.60;58.70;;;;;;10247027;28;93816;-68
2023/10/15 03:52:30;;;;;;;;;;;19.60;58.80;;;;;;10236684;28;97022;-64
2023/10/15 03:57:34;;;;;;;;;;;19.60;58.80;;;;;;10230609;28;93441;-64
2023/10/15 04:07:57;;;;;;;;;;;19.60;59.00;;;;;;10233118;28;93605;-64
2023/10/15 04:12:59;;;;;;;;;;;19.60;58.80;;;;;;10240309;28;93644;-64
2023/10/15 04:18:01;;;;;;;;;;;19.60;58.80;;;;;;10243560;28;94590;-64
2023/10/15 04:23:03;;;;;;;;;;;19.60;58.80;;;;;;10236807;28;93532;-64
2023/10/15 04:28:12;;;;;;;;;;;19.60;58.70;;;;;;10240766;28;93840;-65
2023/10/15 04:33:13;;;;;;;;;;;19.60;58.80;;;;;;10242873;28;93420;-65
2023/10/15 04:38:21;;;;;;;;;;;19.50;58.70;;;;;;10239831;28;94547;-65
2023/10/15 04:43:27;;;;;;;;;;;19.50;58.70;;;;;;10227888;28;95825;-65
2023/10/15 04:48:32;;;;;;;;;;;19.50;58.80;;;;;;10227945;28;94438;-65
2023/10/15 04:53:34;;;;;;;;;;;19.50;58.70;;;;;;10237134;28;94353;-65
2023/10/15 04:58:36;;;;;;;;;;;19.50;58.60;;;;;;10239655;28;94589;-65
2023/10/15 05:03:38;;;;;;;;;;;19.50;58.60;;;;;;10224105;28;93622;-65
2023/10/15 05:08:40;;;;;;;;;;;19.50;58.50;;;;;;10239991;28;94384;-65
2023/10/15 05:13:42;;;;;;;;;;;19.50;58.50;;;;;;10234611;28;93872;-65
2023/10/15 05:18:44;;;;;;;;;;;19.50;58.50;;;;;;10224834;28;93464;-64
2023/10/15 05:23:46;;;;;;;;;;;19.50;58.50;;;;;;10222809;28;93467;-64
2023/10/15 05:28:48;;;;;;;;;;;19.50;58.30;;;;;;10210182;28;94229;-64
2023/10/15 05:33:51;;;;;;;;;;;19.50;58.30;;;;;;10230647;28;96573;-64
2023/10/15 05:38:52;;;;;;;;;;;19.50;58.30;;;;;;10246581;28;93490;-65
2023/10/15 05:43:54;;;;;;;;;;;19.50;58.20;;;;;;10248210;28;93388;-64
2023/10/15 05:48:59;;;;;;;;;;;19.50;58.30;;;;;;10246251;28;94894;-64
2023/10/15 05:54:01;;;;;;;;;;;19.50;58.20;;;;;;10226343;28;93126;-65
2023/10/15 05:59:05;;;;;;;;;;;19.50;58.10;;;;;;10225108;28;94767;-65
2023/10/15 06:04:07;;;;;;;;;;;19.40;58.10;;;;;;10246298;28;94409;-65
2023/10/15 06:09:11;;;;;;;;;;;19.50;58.20;;;;;;10247162;28;92623;-64
2023/10/15 06:14:13;;;;;;;;;;;19.50;58.10;;;;;;10241105;28;94477;-65
2023/10/15 06:19:17;;;;;;;;;;;19.40;58.00;;;;;;10248962;28;93886;-64
2023/10/15 06:24:19;;;;;;;;;;;19.40;58.10;;;;;;10226324;28;95943;-65
2023/10/15 06:29:21;;;;;;;;;;;19.40;58.00;;;;;;10246335;28;94386;-64
2023/10/15 06:34:23;;;;;;;;;;;19.40;58.00;;;;;;10247950;28;94448;-64
2023/10/15 06:39:27;;;;;;;;;;;19.40;58.00;;;;;;10244925;28;93486;-64
2023/10/15 06:44:29;;;;;;;;;;;19.40;58.00;;;;;;10245820;28;94695;-65
2023/10/15 06:49:31;;;;;;;;;;;19.40;58.00;;;;;;10236319;28;94114;-64
2023/10/15 06:54:33;;;;;;;;;;;19.30;58.00;;;;;;10240848;28;93498;-65
2023/10/15 06:59:36;;;;;;;;;;;19.30;58.00;;;;;;10243144;28;94169;-65
2023/10/15 07:04:38;;;;;;;;;;;19.30;58.10;;;;;;10237606;28;93934;-65
2023/10/15 07:09:40;;;;;;;;;;;19.30;58.20;;;;;;10243834;28;94086;-64
2023/10/15 07:14:42;;;;;;;;;;;19.30;58.00;;;;;;10239419;28;96843;-64
2023/10/15 07:19:44;;;;;;;;;;;19.30;58.00;;;;;;10242361;28;93453;-64
2023/10/15 07:24:46;;;;;;;;;;;19.30;59.30;;;;;;10223884;28;93742;-67
2023/10/15 07:29:48;;;;;;;;;;;19.30;59.30;;;;;;10236966;28;94541;-64
2023/10/15 07:34:53;;;;;;;;;;;19.30;59.60;;;;;;10232652;28;94616;-64
2023/10/15 07:39:55;;;;;;;;;;;19.30;59.60;;;;;;10237652;28;93811;-64
2023/10/15 07:44:57;;;;;;;;;;;19.40;59.80;;;;;;10231786;28;94610;-64
2023/10/15 07:49:59;;;;;;;;;;;19.30;59.10;;;;;;10221642;28;93494;-64
2023/10/15 07:55:01;;;;;;;;;;;19.30;58.70;;;;;;10238131;28;94030;-64
2023/10/15 08:00:08;;;;;;;;;;;19.30;58.50;;;;;;10232941;28;94605;-64
2023/10/15 08:05:11;;;;;;;;;;;19.30;58.30;;;;;;10237312;28;96154;-64
2023/10/15 08:10:14;;;;;;;;;;;19.30;58.40;;;;;;10215395;28;93507;-64
2023/10/15 08:15:19;;;;;;;;;;;19.20;57.70;;;;;;10226366;28;93474;-64
2023/10/15 08:20:21;;;;;;;;;;;19.20;58.60;;;;;;10244262;28;93686;-64
2023/10/15 08:25:23;;;;;;;;;;;19.20;57.50;;;;;;10235406;28;94799;-64
2023/10/15 08:30:25;;;;;;;;;;;19.20;57.50;;;;;;10214745;28;93525;-64
2023/10/15 08:35:27;;;;;;;;;;;19.20;57.30;;;;;;10242716;28;94666;-64
2023/10/15 08:40:33;;;;;;;;;;;19.30;57.40;;;;;;10242398;28;92741;-64
2023/10/15 08:45:35;;;;;;;;;;;19.20;56.70;;;;;;10242629;28;94195;-64
2023/10/15 08:50:37;;;;;;;;;;;19.30;56.20;;;;;;10242823;28;94536;-65
2023/10/15 08:55:41;;;;;;;;;;;19.30;56.00;;;;;;10236204;28;95837;-64
2023/10/15 09:00:43;;;;;;;;;;;19.30;55.80;;;;;;10228785;28;94486;-64
2023/10/15 09:05:45;;;;;;;;;;;19.30;56.10;;;;;;10235692;28;94398;-64
2023/10/15 09:10:54;;;;;;;;;;;19.40;55.70;;;;;;10220077;28;94426;-65
2023/10/15 09:15:56;;;;;;;;;;;19.40;55.60;;;;;;10248102;28;93934;-64
2023/10/15 09:20:59;;;;;;;;;;;19.40;55.60;;;;;;10250697;28;93803;-64
2023/10/15 09:26:01;;;;;;;;;;;19.40;55.60;;;;;;10241383;28;92913;-64
2023/10/15 09:31:03;;;;;;;;;;;19.40;55.70;;;;;;10239979;28;94262;-64
2023/10/15 09:36:05;;;;;;;;;;;19.40;55.60;;;;;;10250297;28;94564;-63
2023/10/15 09:41:07;;;;;;;;;;;19.30;55.60;;;;;;10231649;28;93468;-64
2023/10/15 09:46:09;;;;;;;;;;;19.40;55.40;;;;;;10236125;28;96853;-64
2023/10/15 09:51:12;;;;;;;;;;;19.40;55.20;;;;;;10222848;28;94629;-64
2023/10/15 09:56:15;;;;;;;;;;;19.40;55.20;;;;;;10241986;28;94422;-64
2023/10/15 10:01:25;;;;;;;;;;;19.50;55.30;;;;;;10215981;28;94432;-64
2023/10/15 10:06:47;;;;;;;;;;;19.50;55.10;;;;;;10205321;28;94206;-63
2023/10/15 10:12:07;;;;;;;;;;;19.50;55.10;;;;;;10222696;28;93402;-64
2023/10/15 10:17:11;;;;;;;;;;;19.50;54.80;;;;;;10241235;28;93751;-64
2023/10/15 10:22:19;;;;;;;;;;;19.40;54.80;;;;;;10240015;28;92827;-63
2023/10/15 10:27:21;;;;;;;;;;;19.40;54.80;;;;;;10235531;28;93440;-64
2023/10/15 10:32:23;;;;;;;;;;;19.50;55.20;;;;;;10242580;28;94483;-61
2023/10/15 10:37:25;;;;;;;;;;;19.50;56.00;;;;;;10225531;28;96631;-64
2023/10/15 10:42:26;;;;;;;;;;;19.60;57.10;;;;;;10246127;28;93510;-64
2023/10/15 10:47:29;;;;;;;;;;;19.70;57.90;;;;;;10248093;28;93872;-63
2023/10/15 10:52:34;;;;;;;;;;;19.90;57.10;;;;;;10244982;28;94416;-63
2023/10/15 10:57:41;;;;;;;;;;;19.90;57.10;;;;;;10245277;28;93963;-64
2023/10/15 11:02:43;;;;;;;;;;;19.90;57.10;;;;;;10233859;28;93480;-63
2023/10/15 11:07:46;;;;;;;;;;;19.90;57.10;;;;;;10244236;28;94810;-63
2023/10/15 11:12:49;;;;;;;;;;;19.90;57.70;;;;;;10243289;28;92767;-63
2023/10/15 11:17:54;;;;;;;;;;;19.90;57.80;;;;;;10221579;28;94866;-63
2023/10/15 11:22:59;;;;;;;;;;;19.80;57.80;;;;;;10226693;28;94100;-63
2023/10/15 11:28:04;;;;;;;;;;;19.80;58.10;;;;;;10241277;28;96086;-64
2023/10/15 11:33:07;;;;;;;;;;;19.80;58.70;;;;;;10242457;28;94261;-63
2023/10/15 11:38:09;;;;;;;;;;;19.80;58.80;;;;;;10227298;28;93456;-62
2023/10/15 11:43:15;;;;;;;;;;;19.80;58.80;;;;;;10241124;28;95859;-62
2023/10/15 11:48:21;;;;;;;;;;;19.80;58.80;;;;;;10242998;28;94693;-63
2023/10/15 11:53:23;;;;;;;;;;;19.80;59.00;;;;;;10221879;28;94619;-64
2023/10/15 11:58:30;;;;;;;;;;;19.70;58.70;;;;;;10237963;28;94388;-63
2023/10/15 12:03:32;;;;;;;;;;;19.70;58.60;;;;;;10231444;28;93156;-63
2023/10/15 12:08:35;;;;;;;;;;;19.70;57.30;;;;;;10224943;28;94703;-64
2023/10/15 12:13:39;;;;;;;;;;;19.60;57.70;;;;;;10242726;28;94543;-64
2023/10/15 12:18:41;;;;;;;;;;;19.60;58.30;;;;;;10230894;28;95864;-63
2023/10/15 12:23:43;;;;;;;;;;;19.70;58.50;;;;;;10240084;28;95066;-63
2023/10/15 12:28:47;;;;;;;;;;;19.70;58.40;;;;;;10255893;28;93590;-63
2023/10/15 12:33:49;;;;;;;;;;;19.70;58.60;;;;;;10222951;28;96597;-63
2023/10/15 12:38:50;;;;;;;;;;;19.70;58.80;;;;;;10243771;28;93026;-63
2023/10/15 12:43:58;;;;;;;;;;;19.80;59.00;;;;;;10234617;28;93580;-63
2023/10/15 12:49:00;;;;;;;;;;;19.80;58.80;;;;;;10248352;28;93077;-63
2023/10/15 12:54:05;;;;;;;;;;;19.70;58.80;;;;;;10237000;28;94013;-63
2023/10/15 12:59:07;;;;;;;;;;;19.70;58.90;;;;;;10239126;28;93291;-63
2023/10/15 13:04:09;;;;;;;;;;;19.70;59.00;;;;;;10241409;28;93645;-63
2023/10/15 13:09:19;;;;;;;;;;;19.70;59.10;;;;;;10239226;28;96032;-63
2023/10/15 13:14:20;;;;;;;;;;;19.70;59.30;;;;;;10236572;28;95913;-63
2023/10/15 13:19:22;;;;;;;;;;;19.70;59.60;;;;;;10232557;28;93409;-63
2023/10/15 13:24:24;;;;;;;;;;;19.70;59.50;;;;;;10218900;28;93460;-63
2023/10/15 13:29:28;;;;;;;;;;;19.70;59.40;;;;;;10237290;28;94625;-63
2023/10/15 13:34:29;;;;;;;;;;;19.60;59.50;;;;;;10234941;28;94119;-62
2023/10/15 13:39:32;;;;;;;;;;;19.60;59.80;;;;;;10237992;28;93789;-63
2023/10/15 13:44:34;;;;;;;;;;;19.60;59.90;;;;;;10215840;28;93712;-63
2023/10/15 13:49:36;;;;;;;;;;;19.60;60.10;;;;;;10217377;28;94473;-63
2023/10/15 13:54:38;;;;;;;;;;;19.50;60.10;;;;;;10218447;28;93506;-63
2023/10/15 13:59:40;;;;;;;;;;;19.50;60.30;;;;;;10242791;28;97024;-64
2023/10/15 14:04:43;;;;;;;;;;;19.50;60.40;;;;;;10237427;28;93819;-64
2023/10/15 14:09:45;;;;;;;;;;;19.50;60.60;;;;;;10238260;28;93589;-63
2023/10/15 14:14:48;;;;;;;;;;;19.50;60.60;;;;;;10223829;28;94432;-63
2023/10/15 14:19:51;;;;;;;;;;;19.40;60.70;;;;;;10237150;28;93450;-63
2023/10/15 14:24:53;;;;;;;;;;;19.40;60.70;;;;;;10241852;28;94727;-63
2023/10/15 14:29:55;;;;;;;;;;;19.40;60.70;;;;;;10240412;28;95390;-63
2023/10/15 14:34:59;;;;;;;;;;;19.50;60.80;;;;;;10235182;28;93827;-64
2023/10/15 14:40:01;;;;;;;;;;;19.50;60.80;;;;;;10240584;28;93958;-64
2023/10/15 14:45:04;;;;;;;;;;;19.50;60.40;;;;;;10241369;28;94356;-64
2023/10/15 14:50:06;;;;;;;;;;;19.50;60.60;;;;;;10226421;28;95649;-63
2023/10/15 14:55:08;;;;;;;;;;;19.40;60.50;;;;;;10235284;28;93809;-64
2023/10/15 15:00:14;;;;;;;;;;;19.40;60.40;;;;;;10229986;28;94419;-64
2023/10/15 15:05:16;;;;;;;;;;;19.40;60.40;;;;;;10225417;28;93475;-64
2023/10/15 15:10:18;;;;;;;;;;;19.40;60.30;;;;;;10238590;28;94512;-63
2023/10/15 15:15:20;;;;;;;;;;;19.30;60.30;;;;;;10218243;28;94831;-63
2023/10/15 15:20:23;;;;;;;;;;;19.30;60.30;;;;;;10229521;28;94381;-63
2023/10/15 15:25:26;;;;;;;;;;;19.20;60.20;;;;;;10246702;28;92488;-63
2023/10/15 15:30:28;;;;;;;;;;;19.20;60.20;;;;;;10245740;28;94273;-64
2023/10/15 15:35:29;;;;;;;;;;;19.20;60.20;;;;;;10236099;28;93430;-64
2023/10/15 15:40:31;;;;;;;;;;;19.20;60.10;;;;;;10222178;28;97011;-64
2023/10/15 15:45:39;;;;;;;;;;;19.20;60.10;;;;;;10235332;28;93880;-63
2023/10/15 15:50:41;;;;;;;;;;;19.20;60.20;;;;;;10233911;28;94969;-64
2023/10/15 15:55:44;;;;;;;;;;;19.20;60.20;;;;;;10237592;28;93609;-64
2023/10/15 16:00:46;;;;;;;;;;;19.20;60.10;;;;;;10223707;28;94728;-63
2023/10/15 16:05:48;;;;;;;;;;;19.20;60.20;;;;;;10234070;28;93433;-64
2023/10/15 16:10:50;;;;;;;;;;;19.30;60.20;;;;;;10234101;28;94091;-64
2023/10/15 16:15:52;;;;;;;;;;;19.20;60.10;;;;;;10241553;28;93828;-64
2023/10/15 16:20:56;;;;;;;;;;;19.30;62.90;;;;;;10220914;28;93560;-67
2023/10/15 16:25:59;;;;;;;;;;;19.30;61.00;;;;;;10238355;28;93474;-66
2023/10/15 16:31:01;;;;;;;;;;;19.40;61.80;;;;;;10226083;28;95885;-66
2023/10/15 16:36:04;;;;;;;;;;;19.50;63.60;;;;;;10240671;28;93513;-66
2023/10/15 16:41:06;;;;;;;;;;;19.50;63.30;;;;;;10237489;28;94709;-69
2023/10/15 16:46:08;;;;;;;;;;;19.60;63.20;;;;;;10229384;28;93464;-66
2023/10/15 16:51:10;;;;;;;;;;;19.60;63.60;;;;;;10239006;28;94652;-64
2023/10/15 16:56:26;;;;;;;;;;;19.70;63.10;;;;;;10236292;28;94800;-64
2023/10/15 17:01:28;;;;;;;;;;;19.70;63.00;;;;;;10239736;28;93600;-64
2023/10/15 17:06:30;;;;;;;;;;;19.70;63.10;;;;;;10234696;28;92926;-63
2023/10/15 17:11:32;;;;;;;;;;;19.70;63.10;;;;;;10232288;28;94331;-64
2023/10/15 17:16:34;;;;;;;;;;;19.60;63.10;;;;;;10237352;28;94425;-64
2023/10/15 17:21:36;;;;;;;;;;;19.60;63.20;;;;;;10241109;28;95890;-64
2023/10/15 17:26:38;;;;;;;;;;;19.60;63.30;;;;;;10235796;28;93459;-66
2023/10/15 17:31:39;;;;;;;;;;;19.60;64.40;;;;;;10245523;28;94456;-65
2023/10/15 17:36:45;;;;;;;;;;;19.50;64.10;;;;;;10245549;28;94682;-65
2023/10/15 17:41:59;;;;;;;;;;;19.50;63.80;;;;;;10246424;28;94765;-65
2023/10/15 17:47:01;;;;;;;;;;;19.40;63.60;;;;;;10245266;28;94430;-65
2023/10/15 17:52:03;;;;;;;;;;;19.40;63.60;;;;;;10243653;28;93683;-65
2023/10/15 17:57:05;;;;;;;;;;;19.30;63.40;;;;;;10248191;28;92602;-65
2023/10/15 18:02:07;;;;;;;;;;;19.30;63.30;;;;;;10250254;28;94427;-65
2023/10/15 18:07:09;;;;;;;;;;;19.30;63.10;;;;;;10229310;28;94803;-69
2023/10/15 18:12:11;;;;;;;;;;;19.30;63.10;;;;;;10246323;28;97088;-65
2023/10/15 18:17:14;;;;;;;;;;;19.20;63.00;;;;;;10247832;28;94047;-65
2023/10/15 18:22:16;;;;;;;;;;;19.20;62.80;;;;;;10246854;28;93548;-65
2023/10/15 18:27:18;;;;;;;;;;;19.20;62.80;;;;;;10246954;28;93408;-65
2023/10/15 18:32:20;;;;;;;;;;;19.10;62.70;;;;;;10233443;28;94464;-65
2023/10/15 18:37:23;;;;;;;;;;;19.20;62.70;;;;;;10236334;28;93545;-65
2023/10/15 18:42:24;;;;;;;;;;;19.10;62.50;;;;;;10245917;28;93503;-65
2023/10/15 18:47:28;;;;;;;;;;;19.10;62.30;;;;;;10248582;28;93846;-65
2023/10/15 18:52:31;;;;;;;;;;;19.10;62.20;;;;;;10248034;28;93591;-65
2023/10/15 18:57:33;;;;;;;;;;;19.00;62.20;;;;;;10227317;28;93472;-65
2023/10/15 19:02:35;;;;;;;;;;;19.10;62.20;;;;;;10243488;28;96877;-65
2023/10/15 19:07:37;;;;;;;;;;;19.00;62.00;;;;;;10247022;28;94496;-65
2023/10/15 19:12:39;;;;;;;;;;;19.00;62.00;;;;;;10242968;28;94593;-65
2023/10/15 19:17:41;;;;;;;;;;;19.00;62.00;;;;;;10244957;28;94605;-64
2023/10/15 19:22:43;;;;;;;;;;;19.00;61.90;;;;;;10243983;28;94707;-64
2023/10/15 19:27:44;;;;;;;;;;;19.00;61.90;;;;;;10240236;28;94819;-64
2023/10/15 19:32:46;;;;;;;;;;;19.10;63.10;;;;;;10237229;28;93385;-64
2023/10/15 19:37:52;;;;;;;;;;;19.10;61.90;;;;;;10222779;28;92775;-65
2023/10/15 19:42:54;;;;;;;;;;;19.10;61.90;;;;;;10243948;28;94463;-65
2023/10/15 19:47:57;;;;;;;;;;;19.10;61.80;;;;;;10221567;28;93972;-65
2023/10/15 19:53:03;;;;;;;;;;;19.10;61.70;;;;;;10237868;28;97098;-65
2023/10/15 19:58:05;;;;;;;;;;;19.10;61.60;;;;;;10234386;28;94310;-65
2023/10/15 20:03:08;;;;;;;;;;;19.10;61.60;;;;;;10242940;28;94338;-65
2023/10/15 20:08:11;;;;;;;;;;;19.10;61.60;;;;;;10243272;28;93030;-65
2023/10/15 20:13:14;;;;;;;;;;;19.00;61.50;;;;;;10244440;28;94592;-65
2023/10/15 20:18:16;;;;;;;;;;;19.00;61.50;;;;;;10232983;28;95555;-65
2023/10/15 20:23:18;;;;;;;;;;;19.00;61.40;;;;;;10237022;28;93421;-64
2023/10/15 20:28:21;;;;;;;;;;;19.00;61.50;;;;;;10225198;28;92643;-65
2023/10/15 20:33:24;;;;;;;;;;;19.00;61.50;;;;;;10242469;28;93409;-65
2023/10/15 20:38:26;;;;;;;;;;;18.90;61.60;;;;;;10243461;28;93699;-65
2023/10/15 20:43:30;;;;;;;;;;;18.90;61.60;;;;;;10220666;28;95913;-65
2023/10/15 20:48:32;;;;;;;;;;;18.90;61.40;;;;;;10239699;28;94367;-65
2023/10/15 20:53:33;;;;;;;;;;;18.90;61.40;;;;;;10234123;28;94586;-66
2023/10/15 20:58:35;;;;;;;;;;;18.90;61.70;;;;;;10239935;28;94332;-66
2023/10/15 21:03:37;;;;;;;;;;;18.90;61.70;;;;;;10243207;28;93872;-65
2023/10/15 21:08:39;;;;;;;;;;;18.90;61.50;;;;;;10251209;28;93685;-65
2023/10/15 21:13:40;;;;;;;;;;;19.00;61.30;;;;;;10254324;28;94395;-64
2023/10/15 21:18:42;;;;;;;;;;;19.00;61.30;;;;;;10246021;28;93919;-65
2023/10/15 21:23:44;;;;;;;;;;;18.90;61.20;;;;;;10236123;28;92654;-65
2023/10/15 21:28:46;;;;;;;;;;;18.90;61.20;;;;;;10239987;28;93936;-65
2023/10/15 21:33:48;;;;;;;;;;;18.90;61.20;;;;;;10250459;28;95212;-65
2023/10/15 21:38:51;;;;;;;;;;;18.90;61.20;;;;;;10254875;28;94309;-65
2023/10/15 21:43:53;;;;;;;;;;;18.80;61.10;;;;;;10254559;28;93931;-65
2023/10/15 21:48:55;;;;;;;;;;;18.80;61.00;;;;;;10253366;28;94308;-65
2023/10/15 21:53:57;;;;;;;;;;;18.80;60.90;;;;;;10251734;28;94471;-65
2023/10/15 21:58:59;;;;;;;;;;;18.80;60.90;;;;;;10237387;28;93506;-65
2023/10/15 22:04:01;;;;;;;;;;;18.80;60.90;;;;;;10239871;28;93417;-65
2023/10/15 22:09:03;;;;;;;;;;;18.80;60.80;;;;;;10245392;28;93675;-65
2023/10/15 22:14:08;;;;;;;;;;;18.80;60.70;;;;;;10247120;28;114352;-65
2023/10/15 22:19:13;;;;;;;;;;;18.90;60.70;;;;;;10227656;28;94490;-65
2023/10/15 22:24:19;;;;;;;;;;;18.80;60.60;;;;;;10239640;28;97122;-65
2023/10/15 22:29:24;;;;;;;;;;;18.80;60.60;;;;;;10258927;28;93482;-65
2023/10/15 22:34:41;;;;;;;;;;;18.80;60.50;;;;;;10247605;28;93958;-65
2023/10/15 22:39:44;;;;;;;;;;;18.80;60.50;;;;;;10247225;28;94045;-65
2023/10/15 22:44:46;;;;;;;;;;;18.80;60.50;;;;;;10227372;28;94759;-66
2023/10/15 22:49:48;;;;;;;;;;;18.80;60.40;;;;;;10243580;28;94455;-65
2023/10/15 22:54:50;;;;;;;;;;;18.80;60.30;;;;;;10244522;28;94673;-65
2023/10/15 22:59:52;;;;;;;;;;;18.70;60.20;;;;;;10230864;28;94856;-65
2023/10/15 23:04:54;;;;;;;;;;;18.70;60.20;;;;;;10243616;28;95741;-68
2023/10/15 23:09:55;;;;;;;;;;;18.70;60.20;;;;;;10247646;28;94413;-63
2023/10/15 23:14:57;;;;;;;;;;;18.70;60.20;;;;;;10239813;28;95860;-64
2023/10/15 23:25:24;;;;;;;;;;;18.70;60.20;;;;;;10239172;28;94817;-64
2023/10/15 23:30:27;;;;;;;;;;;18.70;60.20;;;;;;10237284;28;94883;-65
2023/10/15 23:35:30;;;;;;;;;;;18.70;60.20;;;;;;10244194;28;92663;-65
2023/10/15 23:40:32;;;;;;;;;;;18.70;60.20;;;;;;10228939;28;93810;-65
2023/10/15 23:45:34;;;;;;;;;;;18.60;60.10;;;;;;10240646;28;94247;-65
2023/10/15 23:50:44;;;;;;;;;;;18.60;60.10;;;;;;10234897;28;93812;-65
2023/10/15 23:55:46;;;;;;;;;;;18.60;60.10;;;;;;10235668;28;94649;-65
